Tropical Cyclones
[Index]
Main Index Home Page Stock Weather Photos Extreme Storms Discussion Storm News and Storm Chasing Reports Tropical Cyclones / Hurricanes / Typhoons Weather Data and Links Wild Fires / Bushfires Weather Observation Techniques Weather Picture Catalogue Tornado Pictures and Reports Stock Video Footage and DVDs for sale
Season 1989-1990 Tropical Cyclone VINCENT Track Map
Season 1989-1990 Summaries: [BoM-AU] [JTWC-AU] [JTWC-SIO] [JTWC-SPAC] [JTWC-SH]
<<- Previous TC | BoM 1989-1990 Season | Next TC ->>

click for intensity scale information  Lat/long Grid: Show Hide

 Date Labels: Show Hide

Bureau of Meteorology Tropical Cyclone Data

Name: VINCENT
Number: 726 / 198990_07

02 Mar 1990 00:00 UTC to 06 Mar 1990 12:00 UTC

    date/time    lat    long    hPa   cat  kts
1990-03-02 00   17.0   114.6    997         35          
1990-03-02 06   17.4   114.1    995    1    39          
1990-03-02 12   17.8   113.4    993    1    41          
1990-03-02 18   18.1   113.1    991    1    45          
1990-03-03 00   18.5   112.8    984    2    56          
1990-03-03 06   19.2   112.0    980    2    60          
1990-03-03 12   19.6   111.5    976    2    66          
1990-03-03 18   20.4   111.0    971    2    72          
1990-03-04 00   21.2   110.6    966    3    78          
1990-03-04 06   21.9   110.1    966    3    78          
1990-03-04 12   23.2   109.7    966    3    78          
1990-03-04 18   24.4   108.9    972    2    70          
1990-03-05 00   25.3   108.9    975    2    66          
1990-03-05 06   27.1   109.0    978    2    64          
1990-03-05 12   29.4   109.5    980    2    60          
1990-03-05 18   32.3   110.5    984    2    56          
1990-03-06 00   34.8   113.0    991    1    45          
1990-03-06 06   36.7   116.5    997         35          
1990-03-06 12   39.3   123.0   1000         31          
Winds are 10-min average.

Tropical cyclone tracks developed by Michael Bath using data from the Bureau of Meteorology and Google Maps.


[Australian Severe Weather index] [Copyright Notice] [Email Contacts] [Search This Site] [Privacy Policy]
Document: tropical_cyclone_vincent.htm Updated: 30 May 2013